createdAt,value
2017-09-20T00:00:09.614Z,35.23
2017-09-20T00:02:37.945Z,35.73
2017-09-20T00:05:05.645Z,34.87
2017-09-20T00:07:33.909Z,35.50
2017-09-20T00:10:01.399Z,36.47
2017-09-20T00:12:28.947Z,33.90
2017-09-20T00:14:57.246Z,33.27
2017-09-20T00:17:24.954Z,34.10
2017-09-20T00:19:52.444Z,32.80
2017-09-20T00:22:20.676Z,34.87
2017-09-20T00:24:48.166Z,33.30
2017-09-20T00:27:17.312Z,33.33
2017-09-20T00:29:44.796Z,33.87
2017-09-20T00:32:12.313Z,30.67
2017-09-20T00:34:39.814Z,33.60
2017-09-20T00:37:07.355Z,34.50
2017-09-20T00:39:34.837Z,34.47
2017-09-20T00:42:02.369Z,33.23
2017-09-20T00:44:29.846Z,33.13
2017-09-20T00:46:57.362Z,35.30
2017-09-20T00:49:24.846Z,36.10
2017-09-20T00:51:52.317Z,37.07
2017-09-20T00:54:19.829Z,36.03
2017-09-20T00:56:47.317Z,37.50
2017-09-20T00:59:14.868Z,36.10
2017-09-20T01:01:42.412Z,35.47
2017-09-20T01:04:09.909Z,38.50
2017-09-20T01:06:37.577Z,38.10
2017-09-20T01:09:05.062Z,40.63
2017-09-20T01:11:33.328Z,41.20
2017-09-20T01:14:01.570Z,41.80
2017-09-20T01:16:29.037Z,39.60
2017-09-20T01:18:57.357Z,41.53
2017-09-20T01:21:37.671Z,42.23
2017-09-20T01:24:05.254Z,39.67
2017-09-20T01:26:33.568Z,42.67
2017-09-20T01:29:01.025Z,40.37
2017-09-20T01:31:28.549Z,42.40
2017-09-20T01:33:58.118Z,41.17
2017-09-20T01:36:25.804Z,41.17
2017-09-20T01:38:53.292Z,43.17
2017-09-20T01:41:20.766Z,43.97
2017-09-20T01:43:48.337Z,43.20
2017-09-20T01:46:15.829Z,46.20
2017-09-20T01:48:44.101Z,48.00
2017-09-20T01:51:11.603Z,48.70
2017-09-20T01:53:39.100Z,49.80
2017-09-20T01:56:06.621Z,48.70
2017-09-20T01:58:34.115Z,46.57
2017-09-20T02:01:02.040Z,45.83
2017-09-20T02:03:29.548Z,47.60
2017-09-20T02:05:57.383Z,47.77
2017-09-20T02:08:24.909Z,48.23
2017-09-20T02:10:53.709Z,46.20
2017-09-20T02:13:21.478Z,44.47
2017-09-20T02:15:48.950Z,46.87
2017-09-20T02:18:16.465Z,46.97
2017-09-20T02:20:43.940Z,47.83
2017-09-20T02:23:12.464Z,46.07
2017-09-20T02:25:40.420Z,49.63
2017-09-20T02:28:07.890Z,47.97
2017-09-20T02:30:35.370Z,47.60
2017-09-20T02:33:02.846Z,49.03
2017-09-20T02:35:30.325Z,47.60
2017-09-20T02:37:58.712Z,46.90
2017-09-20T02:40:26.297Z,51.10
2017-09-20T02:42:53.871Z,44.20
2017-09-20T02:45:21.347Z,48.27
2017-09-20T02:47:49.183Z,45.90
2017-09-20T02:50:16.878Z,51.50
2017-09-20T02:52:44.380Z,47.93
2017-09-20T02:55:11.860Z,48.97
2017-09-20T02:57:39.465Z,52.97
2017-09-20T03:00:06.975Z,49.77
2017-09-20T03:02:34.488Z,53.37
2017-09-20T03:05:02.738Z,51.40
2017-09-20T03:07:30.222Z,55.63
2017-09-20T03:09:58.469Z,55.00
2017-09-20T03:12:25.955Z,47.30
2017-09-20T03:14:54.439Z,53.03
2017-09-20T03:17:22.686Z,52.57
2017-09-20T03:19:50.194Z,54.57
2017-09-20T03:22:17.705Z,54.17
2017-09-20T03:24:45.217Z,54.00
2017-09-20T03:27:12.705Z,59.53
2017-09-20T03:29:40.168Z,59.27
2017-09-20T03:32:07.631Z,60.87
2017-09-20T03:34:36.626Z,61.80
2017-09-20T03:37:04.129Z,60.23
2017-09-20T03:39:32.145Z,61.10
2017-09-20T03:41:59.627Z,61.60
2017-09-20T03:44:27.195Z,61.60
2017-09-20T03:46:55.470Z,63.07
2017-09-20T03:49:23.773Z,65.10
2017-09-20T03:51:51.382Z,60.47
2017-09-20T03:54:18.872Z,61.87
2017-09-20T03:56:46.488Z,56.37
2017-09-20T03:59:14.026Z,54.47
2017-09-20T04:01:41.523Z,55.50
2017-09-20T04:04:09.196Z,54.17
2017-09-20T04:06:37.551Z,51.17
2017-09-20T04:09:05.039Z,53.40
2017-09-20T04:11:33.322Z,53.00
2017-09-20T04:14:01.606Z,53.87
2017-09-20T04:16:29.109Z,52.57
2017-09-20T04:18:56.915Z,52.50
2017-09-20T04:21:25.235Z,50.10
2017-09-20T04:23:52.756Z,55.17
2017-09-20T04:26:20.994Z,50.70
2017-09-20T04:28:48.486Z,55.23
2017-09-20T04:31:16.724Z,51.00
2017-09-20T04:33:44.375Z,51.20
2017-09-20T04:36:11.878Z,50.23
2017-09-20T04:38:40.111Z,53.50
2017-09-20T04:41:07.613Z,52.10
2017-09-20T04:43:35.845Z,54.10
2017-09-20T04:46:03.616Z,51.67
2017-09-20T04:48:31.099Z,52.83
2017-09-20T04:50:58.589Z,50.70
2017-09-20T04:53:26.180Z,52.60
2017-09-20T04:55:53.638Z,51.10
2017-09-20T04:58:21.350Z,50.70
2017-09-20T05:00:49.737Z,53.10
2017-09-20T05:03:17.540Z,50.50
2017-09-20T05:05:45.007Z,48.77
2017-09-20T05:08:12.520Z,49.33
2017-09-20T05:10:40.942Z,52.73
2017-09-20T05:13:08.462Z,64.27
2017-09-20T05:15:35.962Z,59.93
2017-09-20T05:18:03.519Z,49.63
2017-09-20T05:20:31.117Z,59.40
2017-09-20T05:22:59.647Z,60.00
2017-09-20T05:25:27.122Z,52.03
2017-09-20T05:27:54.659Z,50.90
2017-09-20T05:30:22.145Z,50.37
2017-09-20T05:32:49.653Z,50.50
2017-09-20T05:35:17.430Z,48.37
2017-09-20T05:37:44.914Z,51.30
2017-09-20T05:40:12.648Z,49.93
2017-09-20T05:42:40.161Z,47.13
2017-09-20T05:45:08.170Z,50.67
2017-09-20T05:47:35.919Z,57.07
2017-09-20T05:50:04.783Z,58.07
2017-09-20T05:52:33.030Z,52.00
2017-09-20T05:55:00.507Z,49.93
2017-09-20T05:57:28.007Z,53.67
2017-09-20T05:59:55.538Z,49.77
2017-09-20T06:02:23.054Z,59.17
2017-09-20T06:04:50.561Z,65.50
2017-09-20T06:07:18.078Z,51.63
2017-09-20T06:09:45.551Z,50.70
2017-09-20T06:12:13.039Z,49.40
2017-09-20T06:14:41.300Z,57.30
2017-09-20T06:17:09.646Z,46.70
2017-09-20T06:19:37.163Z,47.00
2017-09-20T06:22:05.477Z,51.60
2017-09-20T06:24:33.169Z,44.53
2017-09-20T06:27:01.447Z,46.90
2017-09-20T06:29:28.922Z,43.47
2017-09-20T06:31:57.197Z,47.10
2017-09-20T06:34:25.520Z,46.30
2017-09-20T06:36:53.001Z,46.60
2017-09-20T06:39:20.502Z,45.50
2017-09-20T06:41:48.714Z,44.40
2017-09-20T06:44:16.199Z,45.37
2017-09-20T06:46:45.200Z,43.30
2017-09-20T06:49:13.518Z,46.03
2017-09-20T06:51:41.046Z,43.27
2017-09-20T06:54:09.298Z,42.93
2017-09-20T06:56:36.923Z,39.57
2017-09-20T06:59:04.402Z,40.07
2017-09-20T07:01:31.965Z,37.83
2017-09-20T07:03:59.469Z,35.17
2017-09-20T07:06:27.699Z,33.37
2017-09-20T07:08:55.226Z,39.53
2017-09-20T07:11:22.734Z,35.17
2017-09-20T07:13:50.283Z,33.83
2017-09-20T07:16:17.748Z,33.83
2017-09-20T07:18:46.062Z,32.50
2017-09-20T07:21:14.300Z,33.80
2017-09-20T07:23:42.426Z,33.10
2017-09-20T07:26:10.719Z,32.90
2017-09-20T07:28:38.233Z,30.87
2017-09-20T07:31:06.527Z,33.27
2017-09-20T07:33:34.069Z,32.27
2017-09-20T07:36:02.345Z,33.90
2017-09-20T07:38:30.828Z,33.70
2017-09-20T07:40:59.515Z,34.40
2017-09-20T07:43:27.787Z,34.00
2017-09-20T07:45:56.067Z,30.17
2017-09-20T07:48:24.333Z,32.93
2017-09-20T07:50:52.667Z,31.43
2017-09-20T07:53:20.143Z,33.07
2017-09-20T07:55:47.643Z,34.00
2017-09-20T07:58:15.171Z,32.80
2017-09-20T08:00:42.648Z,32.20
2017-09-20T08:03:11.128Z,28.93
2017-09-20T08:05:39.415Z,32.90
2017-09-20T08:08:07.653Z,27.77
2017-09-20T08:10:35.147Z,28.07
2017-09-20T08:13:03.527Z,25.77
2017-09-20T08:15:31.256Z,25.37
2017-09-20T08:17:58.735Z,26.03
2017-09-20T08:20:27.027Z,25.33
2017-09-20T08:22:54.600Z,25.90
2017-09-20T08:25:22.109Z,27.57
2017-09-20T08:27:49.619Z,26.20
2017-09-20T08:30:17.077Z,26.30
2017-09-20T08:32:44.942Z,24.63
2017-09-20T08:35:12.501Z,25.80
2017-09-20T08:37:40.045Z,23.00
2017-09-20T08:40:08.288Z,25.13
2017-09-20T08:42:37.319Z,24.47
2017-09-20T08:45:04.818Z,24.53
2017-09-20T08:47:32.360Z,25.93
2017-09-20T08:50:00.163Z,22.20
2017-09-20T08:52:28.435Z,24.20
2017-09-20T08:54:56.630Z,22.60
2017-09-20T08:57:24.894Z,22.30
2017-09-20T08:59:53.171Z,21.13
2017-09-20T09:02:20.739Z,21.20
2017-09-20T09:04:49.611Z,19.90
2017-09-20T09:07:17.127Z,20.60
2017-09-20T09:09:44.626Z,19.67
2017-09-20T09:12:12.092Z,20.80
2017-09-20T09:14:40.566Z,19.63
2017-09-20T09:17:08.588Z,20.00
2017-09-20T09:19:36.083Z,18.90
2017-09-20T09:22:03.694Z,17.23
2017-09-20T09:24:31.174Z,16.90
2017-09-20T09:26:58.777Z,17.70
2017-09-20T09:29:27.045Z,17.57
2017-09-20T09:31:54.509Z,20.13
2017-09-20T09:34:22.042Z,19.30
2017-09-20T09:36:49.514Z,17.60
2017-09-20T09:39:17.173Z,18.53
2017-09-20T09:41:44.653Z,17.97
2017-09-20T09:44:12.924Z,17.67
2017-09-20T09:46:40.496Z,18.13
2017-09-20T09:49:08.758Z,15.27
2017-09-20T09:51:36.439Z,18.73
2017-09-20T09:54:04.803Z,15.80
2017-09-20T09:56:33.041Z,16.00
2017-09-20T09:59:00.556Z,14.87
2017-09-20T10:01:28.030Z,14.47
2017-09-20T10:03:55.808Z,15.10
2017-09-20T10:06:23.273Z,13.70
2017-09-20T10:08:50.765Z,13.37
2017-09-20T10:11:19.047Z,13.50
2017-09-20T10:13:47.342Z,13.03
2017-09-20T10:16:15.790Z,13.47
2017-09-20T10:18:43.315Z,15.77
2017-09-20T10:21:10.779Z,13.23
2017-09-20T10:23:38.259Z,14.10
2017-09-20T10:26:05.736Z,12.43
2017-09-20T10:28:33.988Z,11.60
2017-09-20T10:31:01.462Z,12.00
2017-09-20T10:33:28.967Z,9.83
2017-09-20T10:35:56.456Z,10.63
2017-09-20T10:38:23.925Z,10.90
2017-09-20T10:40:52.437Z,8.63
2017-09-20T10:43:19.947Z,9.70
2017-09-20T10:45:47.417Z,8.90
2017-09-20T10:48:14.886Z,10.40
2017-09-20T10:50:43.977Z,9.83
2017-09-20T10:53:11.646Z,9.10
2017-09-20T10:55:39.258Z,11.30
2017-09-20T10:58:06.769Z,10.60
2017-09-20T11:00:34.279Z,9.87
2017-09-20T11:03:01.778Z,9.90
2017-09-20T11:05:29.342Z,8.13
2017-09-20T11:07:57.578Z,9.00
2017-09-20T11:10:25.067Z,8.07
2017-09-20T11:12:52.542Z,6.30
2017-09-20T11:15:20.775Z,6.80
2017-09-20T11:17:48.283Z,7.23
2017-09-20T11:20:15.848Z,5.40
2017-09-20T11:22:43.305Z,5.40
2017-09-20T11:25:10.807Z,6.90
2017-09-20T11:27:38.327Z,6.70
2017-09-20T11:30:06.092Z,6.73
2017-09-20T11:32:33.569Z,6.20
2017-09-20T11:35:01.873Z,5.33
2017-09-20T11:37:29.385Z,6.10
2017-09-20T11:39:57.770Z,4.50
2017-09-20T11:42:25.310Z,5.13
2017-09-20T11:44:53.716Z,5.17
2017-09-20T11:47:21.547Z,4.63
2017-09-20T11:49:49.797Z,5.10
2017-09-20T11:52:17.275Z,4.40
2017-09-20T11:54:45.546Z,4.50
2017-09-20T11:57:13.802Z,4.60
2017-09-20T11:59:41.268Z,4.57
2017-09-20T12:02:08.921Z,5.20
2017-09-20T12:04:36.442Z,5.30
2017-09-20T12:07:04.176Z,6.33
2017-09-20T12:09:32.422Z,5.37
2017-09-20T12:11:59.871Z,4.87
2017-09-20T12:14:27.367Z,4.50
2017-09-20T12:16:55.748Z,5.13
2017-09-20T12:19:23.572Z,4.10
2017-09-20T12:21:51.042Z,4.10
2017-09-20T12:24:19.306Z,3.73
2017-09-20T12:26:46.819Z,3.70
2017-09-20T12:29:14.301Z,4.20
2017-09-20T12:31:41.818Z,4.47
2017-09-20T12:34:09.672Z,3.80
2017-09-20T12:36:37.206Z,3.63
2017-09-20T12:39:04.698Z,4.13
2017-09-20T12:41:33.014Z,3.87
2017-09-20T12:44:00.508Z,5.80
2017-09-20T12:46:27.998Z,4.57
2017-09-20T12:48:55.523Z,4.70
2017-09-20T12:51:23.887Z,4.27
2017-09-20T12:53:51.386Z,5.20
2017-09-20T12:56:19.630Z,4.70
2017-09-20T12:58:47.130Z,4.50
2017-09-20T13:01:14.716Z,5.57
2017-09-20T13:03:42.235Z,5.50
2017-09-20T13:06:10.576Z,5.10
2017-09-20T13:08:38.051Z,7.63
2017-09-20T13:11:05.500Z,5.30
2017-09-20T13:13:33.023Z,4.97
2017-09-20T13:16:00.535Z,4.23
2017-09-20T13:18:29.223Z,5.47
2017-09-20T13:20:57.468Z,5.00
2017-09-20T13:23:24.952Z,6.60
2017-09-20T13:25:53.190Z,4.77
2017-09-20T13:28:20.692Z,5.30
2017-09-20T13:30:49.021Z,5.07
2017-09-20T13:33:16.579Z,4.23
2017-09-20T13:35:44.768Z,4.80
2017-09-20T13:38:12.248Z,5.47
2017-09-20T13:40:39.755Z,4.50
2017-09-20T13:43:07.372Z,5.67
2017-09-20T13:45:35.635Z,5.20
2017-09-20T13:48:03.880Z,4.90
2017-09-20T13:50:31.348Z,4.57
2017-09-20T13:52:58.829Z,4.03
2017-09-20T13:55:26.353Z,3.87
2017-09-20T13:57:53.841Z,3.13
2017-09-20T14:00:21.331Z,3.97
2017-09-20T14:02:48.868Z,3.97
2017-09-20T14:05:16.413Z,4.80
2017-09-20T14:07:43.899Z,4.03
2017-09-20T14:10:12.140Z,4.87
2017-09-20T14:12:39.601Z,4.80
2017-09-20T14:15:07.074Z,4.30
2017-09-20T14:17:35.313Z,4.77
2017-09-20T14:20:03.025Z,4.57
2017-09-20T14:22:31.401Z,5.33
2017-09-20T14:24:59.679Z,4.73
2017-09-20T14:27:27.975Z,5.33
2017-09-20T14:29:55.456Z,5.10
2017-09-20T14:32:22.934Z,4.97
2017-09-20T14:34:50.839Z,5.47
2017-09-20T14:37:19.109Z,5.50
2017-09-20T14:39:46.601Z,4.43
2017-09-20T14:42:14.442Z,4.70
2017-09-20T14:44:41.993Z,4.63
2017-09-20T14:47:10.245Z,5.13
2017-09-20T14:49:38.019Z,4.00
2017-09-20T14:52:06.293Z,5.07
2017-09-20T14:54:34.374Z,5.40
2017-09-20T14:57:02.790Z,5.13
2017-09-20T14:59:30.340Z,5.13
2017-09-20T15:01:57.917Z,4.70
2017-09-20T15:04:44.659Z,4.00
2017-09-20T15:07:12.341Z,4.00
2017-09-20T15:09:40.805Z,3.87
2017-09-20T15:12:08.520Z,6.13
2017-09-20T15:14:36.040Z,4.43
2017-09-20T15:17:04.352Z,4.20
2017-09-20T15:19:32.003Z,5.80
2017-09-20T15:22:00.301Z,4.13
2017-09-20T15:24:27.769Z,4.83
2017-09-20T15:26:56.930Z,5.10
2017-09-20T15:29:24.450Z,4.97
2017-09-20T15:31:53.089Z,4.90
2017-09-20T15:34:20.845Z,5.20
2017-09-20T15:36:48.356Z,4.40
2017-09-20T15:39:16.508Z,4.53
2017-09-20T15:41:44.350Z,5.77
2017-09-20T15:44:11.869Z,4.40
2017-09-20T15:46:39.441Z,5.00
2017-09-20T15:49:08.025Z,4.37
2017-09-20T15:51:36.283Z,3.47
2017-09-20T15:54:03.786Z,4.93
2017-09-20T15:56:31.329Z,5.50
2017-09-20T15:58:58.841Z,5.40
2017-09-20T16:01:26.329Z,5.40
2017-09-20T16:03:54.604Z,4.00
2017-09-20T16:06:22.865Z,4.50
2017-09-20T16:08:50.373Z,4.00
2017-09-20T16:11:17.864Z,4.60
2017-09-20T16:13:45.512Z,4.40
2017-09-20T16:16:12.988Z,4.53
2017-09-20T16:18:52.891Z,5.67
2017-09-20T16:21:20.368Z,4.63
2017-09-20T16:23:47.867Z,5.53
2017-09-20T16:26:15.701Z,4.50
2017-09-20T16:28:43.352Z,4.93
2017-09-20T16:31:11.294Z,6.23
2017-09-20T16:33:38.785Z,5.63
2017-09-20T16:36:06.259Z,5.53
2017-09-20T16:38:33.947Z,4.87
2017-09-20T16:41:01.459Z,5.87
2017-09-20T16:43:29.219Z,4.27
2017-09-20T16:45:56.790Z,4.47
2017-09-20T16:48:24.297Z,4.03
2017-09-20T16:50:52.576Z,4.30
2017-09-20T16:53:20.802Z,4.63
2017-09-20T16:55:48.449Z,5.20
2017-09-20T16:58:18.198Z,4.50
2017-09-20T17:00:46.473Z,5.27
2017-09-20T17:03:13.991Z,5.00
2017-09-20T17:05:41.469Z,5.53
2017-09-20T17:08:09.268Z,7.00
2017-09-20T17:10:37.590Z,6.43
2017-09-20T17:13:05.076Z,5.33
2017-09-20T17:15:32.622Z,5.37
2017-09-20T17:18:00.937Z,5.10
2017-09-20T17:20:29.464Z,5.87
2017-09-20T17:22:57.040Z,6.50
2017-09-20T17:25:24.534Z,6.80
2017-09-20T17:27:52.049Z,6.63
2017-09-20T17:30:20.365Z,6.13
2017-09-20T17:32:48.038Z,7.03
2017-09-20T17:35:17.018Z,6.20
2017-09-20T17:37:44.696Z,7.00
2017-09-20T17:40:12.206Z,6.47
2017-09-20T17:42:39.849Z,6.40
2017-09-20T17:45:07.788Z,6.43
2017-09-20T17:47:36.221Z,6.60
2017-09-20T17:50:03.767Z,6.80
2017-09-20T17:52:31.356Z,6.93
2017-09-20T17:54:59.418Z,6.57
2017-09-20T17:57:27.007Z,6.00
2017-09-20T17:59:55.071Z,6.53
2017-09-20T18:02:22.541Z,6.50
2017-09-20T18:04:50.856Z,7.47
2017-09-20T18:07:18.410Z,7.90
2017-09-20T18:09:46.970Z,8.33
2017-09-20T18:12:14.527Z,7.43
2017-09-20T18:14:42.063Z,8.03
2017-09-20T18:17:09.579Z,7.60
2017-09-20T18:19:37.094Z,8.67
2017-09-20T18:22:05.578Z,7.50
2017-09-20T18:24:33.849Z,6.93
2017-09-20T18:27:01.501Z,8.80
2017-09-20T18:29:29.762Z,7.40
2017-09-20T18:31:57.248Z,8.23
2017-09-20T18:34:25.897Z,8.53
2017-09-20T18:36:53.350Z,8.90
2017-09-20T18:39:20.825Z,7.67
2017-09-20T18:41:48.335Z,9.60
2017-09-20T18:44:15.800Z,9.07
2017-09-20T18:46:43.278Z,9.47
2017-09-20T18:49:10.753Z,10.00
2017-09-20T18:51:38.260Z,9.30
2017-09-20T18:54:05.749Z,11.40
2017-09-20T18:56:33.243Z,11.13
2017-09-20T18:59:00.798Z,11.17
2017-09-20T19:01:29.066Z,12.20
2017-09-20T19:03:56.631Z,11.27
2017-09-20T19:06:24.165Z,11.57
2017-09-20T19:08:51.664Z,9.63
2017-09-20T19:11:20.343Z,10.20
2017-09-20T19:13:47.835Z,10.20
2017-09-20T19:16:15.364Z,10.83
2017-09-20T19:18:42.911Z,10.20
2017-09-20T19:21:11.183Z,13.37
2017-09-20T19:23:39.812Z,14.20
2017-09-20T19:26:07.428Z,11.80
2017-09-20T19:28:34.967Z,12.70
2017-09-20T19:31:02.459Z,11.10
2017-09-20T19:33:29.991Z,9.43
2017-09-20T19:35:58.048Z,9.30
2017-09-20T19:38:25.570Z,8.63
2017-09-20T19:40:53.219Z,9.90
2017-09-20T19:43:21.548Z,9.43
2017-09-20T19:45:49.006Z,9.93
2017-09-20T19:48:16.514Z,9.80
2017-09-20T19:50:43.991Z,9.20
2017-09-20T19:53:11.471Z,8.83
2017-09-20T19:55:39.115Z,8.70
2017-09-20T19:58:06.625Z,9.07
2017-09-20T20:00:37.756Z,8.70
2017-09-20T20:03:06.204Z,9.07
2017-09-20T20:05:33.856Z,9.17
2017-09-20T20:08:01.390Z,8.70
2017-09-20T20:10:28.913Z,10.70
2017-09-20T20:12:57.453Z,10.70
2017-09-20T20:15:24.979Z,11.80
2017-09-20T20:17:52.538Z,10.30
2017-09-20T20:20:20.981Z,9.13
2017-09-20T20:22:48.473Z,9.03
2017-09-20T20:25:17.272Z,9.53
2017-09-20T20:27:45.566Z,8.97
2017-09-20T20:30:13.034Z,8.97
2017-09-20T20:32:40.545Z,8.50
2017-09-20T20:35:08.815Z,8.77
2017-09-20T20:37:36.495Z,8.10
2017-09-20T20:40:06.105Z,9.60
2017-09-20T20:42:33.581Z,9.47
2017-09-20T20:45:01.097Z,9.00
2017-09-20T20:47:28.558Z,9.50
2017-09-20T20:49:58.009Z,9.47
2017-09-20T20:52:25.615Z,10.30
2017-09-20T20:54:53.124Z,8.80
2017-09-20T20:57:20.605Z,8.00
2017-09-20T20:59:48.098Z,8.27
2017-09-20T21:02:15.953Z,7.43
2017-09-20T21:04:43.424Z,8.70
2017-09-20T21:07:10.918Z,7.33
2017-09-20T21:09:40.316Z,7.80
2017-09-20T21:12:08.010Z,6.90
2017-09-20T21:14:35.954Z,8.57
2017-09-20T21:17:04.442Z,9.70
2017-09-20T21:19:31.904Z,8.70
2017-09-20T21:21:59.378Z,8.40
2017-09-20T21:24:26.914Z,8.00
2017-09-20T21:26:54.621Z,9.20
2017-09-20T21:29:22.367Z,8.27
2017-09-20T21:31:50.002Z,9.23
2017-09-20T21:34:17.513Z,7.40
2017-09-20T21:36:45.752Z,9.17
2017-09-20T21:39:13.461Z,8.30
2017-09-20T21:41:41.689Z,8.60
2017-09-20T21:44:09.189Z,7.67
2017-09-20T21:46:37.437Z,8.17
2017-09-20T21:49:04.896Z,8.77
2017-09-20T21:51:32.467Z,8.40
2017-09-20T21:53:59.976Z,8.17
2017-09-20T21:56:27.535Z,9.37
2017-09-20T21:58:55.035Z,10.00
2017-09-20T22:01:22.504Z,9.17
2017-09-20T22:03:50.761Z,8.00
2017-09-20T22:06:18.251Z,8.77
2017-09-20T22:08:46.590Z,8.63
2017-09-20T22:11:14.188Z,7.33
2017-09-20T22:13:42.418Z,6.83
2017-09-20T22:16:21.727Z,8.23
2017-09-20T22:19:01.138Z,8.67
2017-09-20T22:21:41.587Z,8.03
2017-09-20T22:24:21.781Z,7.60
2017-09-20T22:26:48.844Z,8.40
2017-09-20T22:29:16.329Z,8.07
2017-09-20T22:31:43.858Z,8.27
2017-09-20T22:34:11.361Z,7.70
2017-09-20T22:36:39.809Z,8.30
2017-09-20T22:39:07.526Z,7.73
2017-09-20T22:41:35.758Z,8.03
2017-09-20T22:44:03.249Z,7.17
2017-09-20T22:46:31.550Z,6.77
2017-09-20T22:48:59.132Z,8.40
2017-09-20T22:51:26.662Z,7.40
2017-09-20T22:53:54.187Z,9.70
2017-09-20T22:56:21.638Z,7.80
2017-09-20T22:58:50.211Z,8.10
2017-09-20T23:01:17.680Z,8.03
2017-09-20T23:03:45.364Z,8.83
2017-09-20T23:06:13.638Z,7.30
2017-09-20T23:08:41.892Z,7.27
2017-09-20T23:11:09.489Z,7.60
2017-09-20T23:13:36.937Z,7.13
2017-09-20T23:16:04.799Z,8.97
2017-09-20T23:18:33.033Z,8.90
2017-09-20T23:21:00.544Z,8.30
2017-09-20T23:23:28.050Z,8.30
2017-09-20T23:25:55.521Z,8.60
2017-09-20T23:28:23.185Z,8.60
2017-09-20T23:30:50.678Z,8.90
2017-09-20T23:33:18.130Z,8.20
2017-09-20T23:35:45.645Z,8.43
2017-09-20T23:38:13.138Z,8.23
2017-09-20T23:40:41.447Z,8.90
2017-09-20T23:43:08.946Z,8.83
2017-09-20T23:45:36.414Z,9.63
2017-09-20T23:48:04.715Z,8.60
2017-09-20T23:50:32.725Z,8.33
2017-09-20T23:53:00.648Z,9.03
2017-09-20T23:55:28.177Z,9.43
2017-09-20T23:57:55.692Z,8.93
